createdAt,value
2023-02-19T00:00:26.447Z,88.76
2023-02-19T00:05:49.531Z,88.63
2023-02-19T00:10:53.299Z,88.41
2023-02-19T00:15:56.684Z,88.60
2023-02-19T00:20:59.443Z,88.45
2023-02-19T00:26:17.250Z,88.44
2023-02-19T00:31:25.680Z,88.64
2023-02-19T00:36:29.444Z,88.99
2023-02-19T00:41:32.759Z,88.96
2023-02-19T00:46:39.041Z,88.86
2023-02-19T00:51:41.814Z,88.90
2023-02-19T00:56:45.101Z,89.23
2023-02-19T01:01:49.828Z,89.23
2023-02-19T01:06:52.732Z,89.32
2023-02-19T01:11:55.530Z,89.47
2023-02-19T01:16:58.530Z,90.11
2023-02-19T01:22:01.268Z,90.12
2023-02-19T01:27:04.140Z,90.29
2023-02-19T01:32:07.096Z,90.52
2023-02-19T01:37:12.137Z,90.26
2023-02-19T01:42:16.981Z,90.73
2023-02-19T01:47:20.438Z,91.14
2023-02-19T01:52:26.444Z,90.94
2023-02-19T01:57:39.244Z,90.78
2023-02-19T02:02:45.183Z,90.97
2023-02-19T02:08:06.470Z,90.83
2023-02-19T02:13:09.324Z,90.68
2023-02-19T02:18:23.928Z,90.33
2023-02-19T02:23:56.455Z,90.44
2023-02-19T02:29:12.496Z,90.10
2023-02-19T02:34:21.947Z,89.78
2023-02-19T02:39:28.318Z,89.71
2023-02-19T02:44:35.792Z,89.36
2023-02-19T02:49:59.066Z,89.14
2023-02-19T02:55:05.025Z,89.02
2023-02-19T03:00:08.672Z,88.48
2023-02-19T03:05:42.617Z,88.36
2023-02-19T03:10:56.906Z,87.96
2023-02-19T03:16:24.914Z,87.82
2023-02-19T03:21:28.945Z,87.71
2023-02-19T03:26:34.212Z,87.63
2023-02-19T03:31:39.881Z,87.35
2023-02-19T03:36:46.154Z,87.38
2023-02-19T03:42:14.792Z,87.22
2023-02-19T03:47:27.319Z,87.34
2023-02-19T03:52:41.940Z,87.35
2023-02-19T03:57:51.136Z,87.03
2023-02-19T04:03:01.448Z,86.97
2023-02-19T04:08:11.316Z,86.72
2023-02-19T04:13:24.732Z,87.03
2023-02-19T04:18:33.533Z,86.76
2023-02-19T04:23:42.541Z,86.77
2023-02-19T04:28:45.390Z,86.45
2023-02-19T04:33:48.124Z,86.51
2023-02-19T04:38:50.869Z,86.40
2023-02-19T04:43:53.714Z,86.38
2023-02-19T04:48:56.587Z,86.46
2023-02-19T04:53:59.407Z,86.40
2023-02-19T04:59:02.184Z,86.23
2023-02-19T05:04:05.429Z,86.24
2023-02-19T05:09:08.870Z,86.37
2023-02-19T05:14:11.632Z,86.37
2023-02-19T05:19:14.435Z,86.44
2023-02-19T05:24:17.162Z,86.65
2023-02-19T05:29:20.011Z,86.61
2023-02-19T05:34:22.822Z,86.56
2023-02-19T05:39:25.618Z,86.57
2023-02-19T05:44:28.461Z,86.54
2023-02-19T05:49:31.198Z,86.72
2023-02-19T05:54:33.941Z,87.04
2023-02-19T05:59:36.730Z,86.78
2023-02-19T06:04:39.535Z,86.65
2023-02-19T06:09:42.513Z,86.87
2023-02-19T06:14:45.354Z,86.77
2023-02-19T06:19:48.118Z,86.88
2023-02-19T06:24:50.895Z,86.92
2023-02-19T06:29:53.779Z,86.78
2023-02-19T06:34:56.589Z,86.76
2023-02-19T06:39:59.322Z,86.78
2023-02-19T06:45:02.090Z,86.53
2023-02-19T06:50:05.188Z,86.32
2023-02-19T06:55:09.280Z,86.00
2023-02-19T07:00:12.391Z,85.81
2023-02-19T07:05:15.161Z,85.54
2023-02-19T07:10:18.045Z,85.20
2023-02-19T07:15:20.776Z,85.07
2023-02-19T07:20:23.583Z,85.16
2023-02-19T07:25:26.581Z,84.82
2023-02-19T07:30:29.576Z,84.58
2023-02-19T07:35:33.074Z,84.34
2023-02-19T07:40:37.012Z,84.00
2023-02-19T07:45:39.775Z,83.99
2023-02-19T07:50:42.658Z,84.01
2023-02-19T07:55:46.058Z,83.63
2023-02-19T08:00:48.863Z,83.80
2023-02-19T08:05:53.861Z,83.50
2023-02-19T08:11:19.063Z,83.13
2023-02-19T08:16:33.475Z,82.95
2023-02-19T08:21:44.406Z,82.02
2023-02-19T08:26:47.723Z,81.37
2023-02-19T08:31:50.680Z,80.75
2023-02-19T08:36:53.583Z,79.81
2023-02-19T08:41:57.742Z,79.55
2023-02-19T08:47:00.473Z,79.22
2023-02-19T08:52:03.254Z,79.92
2023-02-19T08:57:07.411Z,80.38
2023-02-19T09:02:10.574Z,81.22
2023-02-19T09:07:13.509Z,81.28
2023-02-19T09:12:18.727Z,81.68
2023-02-19T09:17:22.656Z,81.06
2023-02-19T09:22:26.757Z,80.02
2023-02-19T09:27:32.302Z,78.83
2023-02-19T09:32:35.064Z,77.66
2023-02-19T09:37:40.569Z,77.19
2023-02-19T09:42:43.757Z,76.01
2023-02-19T09:47:47.412Z,75.67
2023-02-19T09:52:56.449Z,74.75
2023-02-19T09:58:02.362Z,72.08
2023-02-19T10:03:14.893Z,72.57
2023-02-19T10:08:21.703Z,72.42
2023-02-19T10:13:29.391Z,72.97
2023-02-19T10:18:43.944Z,72.17
2023-02-19T10:23:51.501Z,69.94
2023-02-19T10:28:55.557Z,70.82
2023-02-19T10:34:02.096Z,69.72
2023-02-19T10:39:22.313Z,68.83
2023-02-19T10:49:37.418Z,69.04
2023-02-19T10:54:40.972Z,67.14
2023-02-19T10:59:53.282Z,66.04
2023-02-19T11:05:04.131Z,65.16
2023-02-19T11:10:22.082Z,63.22
2023-02-19T11:15:50.037Z,63.39
2023-02-19T11:21:02.921Z,61.68
2023-02-19T11:26:21.862Z,60.83
2023-02-19T11:31:33.225Z,60.72
2023-02-19T11:36:37.782Z,58.59
2023-02-19T11:42:22.476Z,58.09
2023-02-19T11:47:48.925Z,57.97
2023-02-19T11:53:16.812Z,58.08
2023-02-19T11:58:48.869Z,56.09
2023-02-19T12:04:26.131Z,54.25
2023-02-19T12:09:29.077Z,54.16
2023-02-19T12:15:24.324Z,55.45
2023-02-19T12:20:52.778Z,56.37
2023-02-19T12:26:10.619Z,54.68
2023-02-19T12:31:49.657Z,53.35
2023-02-19T12:37:23.296Z,53.03
2023-02-19T12:43:03.301Z,52.87
2023-02-19T12:48:30.287Z,54.00
2023-02-19T12:53:36.101Z,53.37
2023-02-19T12:58:45.609Z,53.73
2023-02-19T13:03:54.039Z,51.28
2023-02-19T13:09:06.841Z,52.38
2023-02-19T13:14:50.015Z,52.33
2023-02-19T13:20:00.552Z,53.40
2023-02-19T13:25:04.858Z,53.79
2023-02-19T13:30:08.319Z,53.59
2023-02-19T13:35:32.869Z,54.79
2023-02-19T13:40:39.525Z,55.62
2023-02-19T13:45:46.139Z,55.58
2023-02-19T13:50:49.275Z,56.41
2023-02-19T13:55:53.089Z,55.55
2023-02-19T14:01:01.508Z,54.61
2023-02-19T14:06:12.364Z,55.77
2023-02-19T14:11:19.844Z,56.48
2023-02-19T14:16:30.546Z,57.30
2023-02-19T14:21:39.067Z,57.35
2023-02-19T14:26:43.343Z,58.27
2023-02-19T14:31:47.249Z,57.59
2023-02-19T14:37:01.711Z,57.72
2023-02-19T14:42:33.490Z,57.96
2023-02-19T14:47:37.500Z,57.63
2023-02-19T14:52:46.725Z,56.28
2023-02-19T14:57:52.873Z,55.57
2023-02-19T15:02:58.657Z,54.78
2023-02-19T15:08:07.716Z,54.63
2023-02-19T15:13:17.867Z,56.04
2023-02-19T15:18:24.298Z,56.90
2023-02-19T15:23:30.500Z,57.71
2023-02-19T15:28:34.624Z,58.51
2023-02-19T15:33:50.927Z,59.03
2023-02-19T15:38:57.449Z,59.41
2023-02-19T15:44:12.960Z,60.12
2023-02-19T15:49:23.848Z,60.73
2023-02-19T15:54:53.137Z,60.45
2023-02-19T16:00:12.120Z,60.54
2023-02-19T16:05:28.922Z,60.24
2023-02-19T16:10:32.635Z,60.25
2023-02-19T16:15:36.073Z,60.07
2023-02-19T16:20:38.914Z,60.43
2023-02-19T16:25:45.294Z,60.69
2023-02-19T16:31:01.431Z,61.08
2023-02-19T16:36:35.873Z,60.97
2023-02-19T16:42:04.492Z,61.69
2023-02-19T16:47:34.684Z,61.74
2023-02-19T16:52:50.814Z,62.39
2023-02-19T16:57:53.976Z,62.60
2023-02-19T17:03:03.004Z,62.90
2023-02-19T17:08:24.114Z,63.72
2023-02-19T17:13:29.677Z,64.28
2023-02-19T17:18:33.072Z,64.90
2023-02-19T17:23:37.238Z,64.72
2023-02-19T17:28:41.448Z,64.07
2023-02-19T17:33:44.852Z,62.44
2023-02-19T17:38:49.178Z,62.29
2023-02-19T17:43:54.132Z,61.67
2023-02-19T17:48:57.022Z,61.06
2023-02-19T17:54:00.138Z,60.80
2023-02-19T17:59:03.847Z,60.38
2023-02-19T18:04:06.853Z,60.23
2023-02-19T18:09:12.556Z,60.49
2023-02-19T18:14:15.506Z,60.92
2023-02-19T18:19:18.974Z,61.19
2023-02-19T18:24:21.816Z,61.79
2023-02-19T18:29:26.121Z,61.66
2023-02-19T18:34:28.941Z,62.15
2023-02-19T18:39:33.226Z,62.47
2023-02-19T18:44:36.537Z,62.81
2023-02-19T18:49:39.612Z,63.50
2023-02-19T18:54:43.378Z,63.71
2023-02-19T18:59:47.301Z,64.25
2023-02-19T19:04:52.587Z,64.30
2023-02-19T19:09:55.513Z,64.49
2023-02-19T19:14:58.301Z,64.59
2023-02-19T19:20:01.163Z,64.62
2023-02-19T19:25:04.402Z,65.02
2023-02-19T19:30:08.169Z,65.20
2023-02-19T19:35:11.422Z,65.48
2023-02-19T19:40:16.220Z,65.72
2023-02-19T19:45:21.115Z,65.76
2023-02-19T19:50:23.956Z,65.64
2023-02-19T19:55:26.826Z,65.34
2023-02-19T20:00:30.741Z,65.78
2023-02-19T20:05:33.661Z,65.62
2023-02-19T20:10:36.458Z,65.72
2023-02-19T20:15:39.365Z,65.97
2023-02-19T20:20:42.257Z,66.64
2023-02-19T20:25:45.110Z,67.36
2023-02-19T20:30:47.971Z,67.76
2023-02-19T20:35:50.851Z,68.10
2023-02-19T20:40:54.750Z,68.55
2023-02-19T20:45:57.922Z,69.14
2023-02-19T20:51:01.192Z,69.90
2023-02-19T20:56:06.242Z,70.16
2023-02-19T21:01:09.371Z,70.52
2023-02-19T21:06:12.645Z,70.58
2023-02-19T21:11:15.904Z,70.87
2023-02-19T21:16:18.752Z,71.58
2023-02-19T21:21:25.331Z,73.79
2023-02-19T21:26:36.836Z,76.30
2023-02-19T21:31:45.014Z,76.92
2023-02-19T21:36:48.174Z,77.58
2023-02-19T21:41:51.216Z,77.69
2023-02-19T21:46:54.068Z,77.98
2023-02-19T21:51:57.184Z,78.09
2023-02-19T21:57:02.796Z,78.67
2023-02-19T22:02:05.637Z,79.65
2023-02-19T22:07:10.685Z,79.37
2023-02-19T22:12:13.579Z,79.73
2023-02-19T22:17:16.445Z,80.30
2023-02-19T22:22:19.294Z,80.67
2023-02-19T22:27:22.420Z,81.07
2023-02-19T22:32:25.438Z,81.02
2023-02-19T22:37:29.804Z,80.97
2023-02-19T22:42:35.018Z,81.13
2023-02-19T22:47:40.140Z,81.99
2023-02-19T22:52:42.975Z,82.56
2023-02-19T22:57:45.903Z,83.13
2023-02-19T23:02:49.337Z,84.07
2023-02-19T23:07:52.305Z,84.76
2023-02-19T23:12:55.169Z,84.81
2023-02-19T23:17:58.077Z,84.95
2023-02-19T23:23:00.998Z,84.92
2023-02-19T23:28:04.165Z,84.74
2023-02-19T23:33:06.981Z,85.25
2023-02-19T23:38:09.932Z,85.27
2023-02-19T23:43:13.234Z,85.46
2023-02-19T23:48:16.545Z,86.35
2023-02-19T23:53:19.386Z,87.26
2023-02-19T23:58:29.277Z,88.26
